sensor_id;sensor_type;location;lat;lon;timestamp;temperature;humidity
15172;DHT22;7686;52.184;9.280;2023-02-18T00:00:07;26.40;35.20
15172;DHT22;7686;52.184;9.280;2023-02-18T00:02:34;26.40;35.20
15172;DHT22;7686;52.184;9.280;2023-02-18T00:05:01;26.40;35.20
15172;DHT22;7686;52.184;9.280;2023-02-18T00:07:27;26.40;35.20
15172;DHT22;7686;52.184;9.280;2023-02-18T00:09:54;26.40;35.20
15172;DHT22;7686;52.184;9.280;2023-02-18T00:12:21;26.40;35.20
15172;DHT22;7686;52.184;9.280;2023-02-18T00:14:47;26.40;35.20
15172;DHT22;7686;52.184;9.280;2023-02-18T00:17:14;26.40;35.20
15172;DHT22;7686;52.184;9.280;2023-02-18T00:19:40;26.40;35.20
15172;DHT22;7686;52.184;9.280;2023-02-18T00:22:07;26.40;35.20
15172;DHT22;7686;52.184;9.280;2023-02-18T00:24:34;26.40;35.20
15172;DHT22;7686;52.184;9.280;2023-02-18T00:27:00;26.40;35.20
15172;DHT22;7686;52.184;9.280;2023-02-18T00:29:27;26.40;35.20
15172;DHT22;7686;52.184;9.280;2023-02-18T00:31:53;26.40;35.20
15172;DHT22;7686;52.184;9.280;2023-02-18T00:34:20;26.40;35.20
15172;DHT22;7686;52.184;9.280;2023-02-18T00:36:47;26.40;35.20
15172;DHT22;7686;52.184;9.280;2023-02-18T00:39:13;26.40;35.20
15172;DHT22;7686;52.184;9.280;2023-02-18T00:41:41;26.40;35.20
15172;DHT22;7686;52.184;9.280;2023-02-18T00:44:08;26.40;35.20
15172;DHT22;7686;52.184;9.280;2023-02-18T00:46:35;26.40;35.20
15172;DHT22;7686;52.184;9.280;2023-02-18T00:49:03;26.40;35.20
15172;DHT22;7686;52.184;9.280;2023-02-18T00:51:30;26.40;35.20
15172;DHT22;7686;52.184;9.280;2023-02-18T00:53:57;26.40;35.20
15172;DHT22;7686;52.184;9.280;2023-02-18T00:56:23;26.40;35.20
15172;DHT22;7686;52.184;9.280;2023-02-18T00:58:51;26.40;35.20
15172;DHT22;7686;52.184;9.280;2023-02-18T01:01:18;26.40;35.20
15172;DHT22;7686;52.184;9.280;2023-02-18T01:03:45;26.40;35.20
15172;DHT22;7686;52.184;9.280;2023-02-18T01:06:12;26.40;35.20
15172;DHT22;7686;52.184;9.280;2023-02-18T01:08:39;26.40;35.20
15172;DHT22;7686;52.184;9.280;2023-02-18T01:11:08;26.40;35.20
15172;DHT22;7686;52.184;9.280;2023-02-18T01:13:35;26.30;35.10
15172;DHT22;7686;52.184;9.280;2023-02-18T01:16:02;26.50;35.30
15172;DHT22;7686;52.184;9.280;2023-02-18T01:18:29;26.30;35.20
15172;DHT22;7686;52.184;9.280;2023-02-18T01:20:57;26.30;35.20
15172;DHT22;7686;52.184;9.280;2023-02-18T01:23:23;26.30;35.20
15172;DHT22;7686;52.184;9.280;2023-02-18T01:25:51;26.30;35.20
15172;DHT22;7686;52.184;9.280;2023-02-18T01:28:18;26.30;35.20
15172;DHT22;7686;52.184;9.280;2023-02-18T01:30:46;26.30;35.20
15172;DHT22;7686;52.184;9.280;2023-02-18T01:33:13;26.30;35.20
15172;DHT22;7686;52.184;9.280;2023-02-18T01:35:40;26.30;35.20
15172;DHT22;7686;52.184;9.280;2023-02-18T01:38:07;26.30;35.20
15172;DHT22;7686;52.184;9.280;2023-02-18T01:40:34;26.30;35.20
15172;DHT22;7686;52.184;9.280;2023-02-18T01:43:01;26.30;35.20
15172;DHT22;7686;52.184;9.280;2023-02-18T01:48:12;26.30;35.30
15172;DHT22;7686;52.184;9.280;2023-02-18T01:50:50;26.30;35.30
15172;DHT22;7686;52.184;9.280;2023-02-18T01:53:21;26.30;35.30
15172;DHT22;7686;52.184;9.280;2023-02-18T01:55:51;26.30;35.20
15172;DHT22;7686;52.184;9.280;2023-02-18T01:58:19;26.20;35.20
15172;DHT22;7686;52.184;9.280;2023-02-18T02:00:45;26.20;35.20
15172;DHT22;7686;52.184;9.280;2023-02-18T02:03:12;26.20;35.20
15172;DHT22;7686;52.184;9.280;2023-02-18T02:05:39;26.20;35.20
15172;DHT22;7686;52.184;9.280;2023-02-18T02:08:06;26.20;35.20
15172;DHT22;7686;52.184;9.280;2023-02-18T02:11:00;26.20;35.30
15172;DHT22;7686;52.184;9.280;2023-02-18T02:16:07;26.30;35.30
15172;DHT22;7686;52.184;9.280;2023-02-18T02:24:27;26.20;35.30
15172;DHT22;7686;52.184;9.280;2023-02-18T02:36:11;26.20;35.30
15172;DHT22;7686;52.184;9.280;2023-02-18T02:39:12;26.20;35.30
15172;DHT22;7686;52.184;9.280;2023-02-18T02:44:36;26.10;35.20
15172;DHT22;7686;52.184;9.280;2023-02-18T02:47:13;26.20;35.30
15172;DHT22;7686;52.184;9.280;2023-02-18T02:50:00;26.30;35.40
15172;DHT22;7686;52.184;9.280;2023-02-18T02:52:36;26.20;35.30
15172;DHT22;7686;52.184;9.280;2023-02-18T02:55:08;26.20;35.30
15172;DHT22;7686;52.184;9.280;2023-02-18T02:57:50;26.20;35.30
15172;DHT22;7686;52.184;9.280;2023-02-18T03:00:20;26.10;35.30
15172;DHT22;7686;52.184;9.280;2023-02-18T03:11:08;26.20;35.40
15172;DHT22;7686;52.184;9.280;2023-02-18T03:13:50;26.20;35.40
15172;DHT22;7686;52.184;9.280;2023-02-18T03:16:26;26.10;35.30
15172;DHT22;7686;52.184;9.280;2023-02-18T03:19:10;26.10;35.30
15172;DHT22;7686;52.184;9.280;2023-02-18T03:21:47;26.10;35.30
15172;DHT22;7686;52.184;9.280;2023-02-18T03:24:26;26.10;35.30
15172;DHT22;7686;52.184;9.280;2023-02-18T03:26:58;26.10;35.30
15172;DHT22;7686;52.184;9.280;2023-02-18T03:29:28;26.10;35.40
15172;DHT22;7686;52.184;9.280;2023-02-18T03:31:59;26.10;35.30
15172;DHT22;7686;52.184;9.280;2023-02-18T03:34:30;26.10;35.30
15172;DHT22;7686;52.184;9.280;2023-02-18T03:36:59;26.20;35.40
15172;DHT22;7686;52.184;9.280;2023-02-18T03:39:29;26.10;35.40
15172;DHT22;7686;52.184;9.280;2023-02-18T03:41:56;26.10;35.40
15172;DHT22;7686;52.184;9.280;2023-02-18T03:44:24;26.10;35.30
15172;DHT22;7686;52.184;9.280;2023-02-18T03:46:51;26.10;35.40
15172;DHT22;7686;52.184;9.280;2023-02-18T03:49:18;26.30;35.50
15172;DHT22;7686;52.184;9.280;2023-02-18T03:51:44;26.10;35.40
15172;DHT22;7686;52.184;9.280;2023-02-18T03:54:12;26.10;35.40
15172;DHT22;7686;52.184;9.280;2023-02-18T03:56:40;26.10;35.40
15172;DHT22;7686;52.184;9.280;2023-02-18T03:59:08;26.10;35.40
15172;DHT22;7686;52.184;9.280;2023-02-18T04:01:35;26.10;35.40
15172;DHT22;7686;52.184;9.280;2023-02-18T04:04:02;26.10;35.40
15172;DHT22;7686;52.184;9.280;2023-02-18T04:06:29;26.10;35.40
15172;DHT22;7686;52.184;9.280;2023-02-18T04:08:55;26.10;35.40
15172;DHT22;7686;52.184;9.280;2023-02-18T04:11:22;26.10;35.40
15172;DHT22;7686;52.184;9.280;2023-02-18T04:13:49;26.10;36.10
15172;DHT22;7686;52.184;9.280;2023-02-18T04:16:15;26.10;35.40
15172;DHT22;7686;52.184;9.280;2023-02-18T04:18:42;26.10;35.40
15172;DHT22;7686;52.184;9.280;2023-02-18T04:21:08;26.10;35.40
15172;DHT22;7686;52.184;9.280;2023-02-18T04:23:35;26.10;35.40
15172;DHT22;7686;52.184;9.280;2023-02-18T04:26:02;26.10;35.60
15172;DHT22;7686;52.184;9.280;2023-02-18T04:28:29;26.10;35.40
15172;DHT22;7686;52.184;9.280;2023-02-18T04:30:55;26.20;35.40
15172;DHT22;7686;52.184;9.280;2023-02-18T04:33:22;26.10;35.40
15172;DHT22;7686;52.184;9.280;2023-02-18T04:35:48;26.10;35.40
15172;DHT22;7686;52.184;9.280;2023-02-18T04:38:15;26.10;35.40
15172;DHT22;7686;52.184;9.280;2023-02-18T04:40:42;26.10;35.40
15172;DHT22;7686;52.184;9.280;2023-02-18T04:43:08;26.10;35.40
15172;DHT22;7686;52.184;9.280;2023-02-18T04:45:35;26.10;36.10
15172;DHT22;7686;52.184;9.280;2023-02-18T04:48:02;26.10;35.40
15172;DHT22;7686;52.184;9.280;2023-02-18T04:50:28;26.10;35.40
15172;DHT22;7686;52.184;9.280;2023-02-18T04:52:55;26.20;35.40
15172;DHT22;7686;52.184;9.280;2023-02-18T04:55:22;26.10;35.40
15172;DHT22;7686;52.184;9.280;2023-02-18T04:57:48;26.20;36.20
15172;DHT22;7686;52.184;9.280;2023-02-18T05:00:17;26.10;35.40
15172;DHT22;7686;52.184;9.280;2023-02-18T05:02:44;26.10;35.40
15172;DHT22;7686;52.184;9.280;2023-02-18T05:05:12;26.10;35.50
15172;DHT22;7686;52.184;9.280;2023-02-18T05:07:39;26.10;35.40
15172;DHT22;7686;52.184;9.280;2023-02-18T05:10:09;26.10;35.40
15172;DHT22;7686;52.184;9.280;2023-02-18T05:12:38;26.10;36.20
15172;DHT22;7686;52.184;9.280;2023-02-18T05:15:05;26.20;35.50
15172;DHT22;7686;52.184;9.280;2023-02-18T05:17:32;26.10;35.40
15172;DHT22;7686;52.184;9.280;2023-02-18T05:19:59;26.10;35.40
15172;DHT22;7686;52.184;9.280;2023-02-18T05:22:25;26.10;35.40
15172;DHT22;7686;52.184;9.280;2023-02-18T05:24:52;26.10;35.40
15172;DHT22;7686;52.184;9.280;2023-02-18T05:27:19;26.10;35.40
15172;DHT22;7686;52.184;9.280;2023-02-18T05:29:45;26.10;35.40
15172;DHT22;7686;52.184;9.280;2023-02-18T05:32:12;26.10;35.40
15172;DHT22;7686;52.184;9.280;2023-02-18T05:34:38;26.10;35.40
15172;DHT22;7686;52.184;9.280;2023-02-18T05:37:05;26.10;35.40
15172;DHT22;7686;52.184;9.280;2023-02-18T05:39:32;26.10;35.50
15172;DHT22;7686;52.184;9.280;2023-02-18T05:41:58;26.10;35.40
15172;DHT22;7686;52.184;9.280;2023-02-18T05:44:25;26.10;35.50
15172;DHT22;7686;52.184;9.280;2023-02-18T05:47:04;26.10;35.40
15172;DHT22;7686;52.184;9.280;2023-02-18T05:49:32;26.10;35.40
15172;DHT22;7686;52.184;9.280;2023-02-18T05:51:59;26.10;35.40
15172;DHT22;7686;52.184;9.280;2023-02-18T05:54:27;26.10;35.40
15172;DHT22;7686;52.184;9.280;2023-02-18T05:56:54;26.10;35.40
15172;DHT22;7686;52.184;9.280;2023-02-18T05:59:21;26.10;35.40
15172;DHT22;7686;52.184;9.280;2023-02-18T06:01:48;26.20;35.50
15172;DHT22;7686;52.184;9.280;2023-02-18T06:04:15;26.20;35.50
15172;DHT22;7686;52.184;9.280;2023-02-18T06:06:42;26.10;35.50
15172;DHT22;7686;52.184;9.280;2023-02-18T06:09:10;26.10;35.50
15172;DHT22;7686;52.184;9.280;2023-02-18T06:11:37;26.10;35.50
15172;DHT22;7686;52.184;9.280;2023-02-18T06:14:04;26.10;35.50
15172;DHT22;7686;52.184;9.280;2023-02-18T06:16:31;26.10;35.60
15172;DHT22;7686;52.184;9.280;2023-02-18T06:18:58;26.10;35.50
15172;DHT22;7686;52.184;9.280;2023-02-18T06:21:24;26.10;35.50
15172;DHT22;7686;52.184;9.280;2023-02-18T06:23:51;26.10;35.50
15172;DHT22;7686;52.184;9.280;2023-02-18T06:26:18;26.10;35.50
15172;DHT22;7686;52.184;9.280;2023-02-18T06:28:44;26.10;35.50
15172;DHT22;7686;52.184;9.280;2023-02-18T06:31:11;26.10;35.50
15172;DHT22;7686;52.184;9.280;2023-02-18T06:33:38;26.10;35.60
15172;DHT22;7686;52.184;9.280;2023-02-18T06:36:06;26.10;35.60
15172;DHT22;7686;52.184;9.280;2023-02-18T06:38:34;26.10;35.60
15172;DHT22;7686;52.184;9.280;2023-02-18T06:41:01;26.10;35.60
15172;DHT22;7686;52.184;9.280;2023-02-18T06:43:28;26.10;35.60
15172;DHT22;7686;52.184;9.280;2023-02-18T06:45:55;26.10;35.60
15172;DHT22;7686;52.184;9.280;2023-02-18T06:48:22;26.10;35.60
15172;DHT22;7686;52.184;9.280;2023-02-18T06:50:49;26.10;35.60
15172;DHT22;7686;52.184;9.280;2023-02-18T06:53:16;26.20;35.70
15172;DHT22;7686;52.184;9.280;2023-02-18T06:55:43;26.10;35.60
15172;DHT22;7686;52.184;9.280;2023-02-18T06:58:11;26.10;35.70
15172;DHT22;7686;52.184;9.280;2023-02-18T07:00:37;26.10;35.70
15172;DHT22;7686;52.184;9.280;2023-02-18T07:03:05;26.10;35.70
15172;DHT22;7686;52.184;9.280;2023-02-18T07:05:31;26.10;35.70
15172;DHT22;7686;52.184;9.280;2023-02-18T07:07:58;26.10;35.80
15172;DHT22;7686;52.184;9.280;2023-02-18T07:10:25;26.20;35.80
15172;DHT22;7686;52.184;9.280;2023-02-18T07:12:52;26.10;35.70
15172;DHT22;7686;52.184;9.280;2023-02-18T07:15:19;26.10;35.80
15172;DHT22;7686;52.184;9.280;2023-02-18T07:17:50;26.20;35.80
15172;DHT22;7686;52.184;9.280;2023-02-18T07:20:17;26.20;35.80
15172;DHT22;7686;52.184;9.280;2023-02-18T07:22:44;26.20;35.80
15172;DHT22;7686;52.184;9.280;2023-02-18T07:25:11;26.20;35.90
15172;DHT22;7686;52.184;9.280;2023-02-18T07:27:38;26.40;35.90
15172;DHT22;7686;52.184;9.280;2023-02-18T07:30:05;26.20;35.80
15172;DHT22;7686;52.184;9.280;2023-02-18T07:32:32;26.20;35.80
15172;DHT22;7686;52.184;9.280;2023-02-18T07:34:59;26.20;35.80
15172;DHT22;7686;52.184;9.280;2023-02-18T07:37:26;26.20;35.80
15172;DHT22;7686;52.184;9.280;2023-02-18T07:39:52;26.20;35.90
15172;DHT22;7686;52.184;9.280;2023-02-18T07:42:19;26.20;35.80
15172;DHT22;7686;52.184;9.280;2023-02-18T07:44:46;26.20;35.80
15172;DHT22;7686;52.184;9.280;2023-02-18T07:47:14;26.20;35.90
15172;DHT22;7686;52.184;9.280;2023-02-18T07:49:41;26.30;35.90
15172;DHT22;7686;52.184;9.280;2023-02-18T07:52:08;26.20;35.90
15172;DHT22;7686;52.184;9.280;2023-02-18T07:54:35;26.30;35.90
15172;DHT22;7686;52.184;9.280;2023-02-18T07:57:01;26.30;35.90
15172;DHT22;7686;52.184;9.280;2023-02-18T07:59:28;26.20;35.90
15172;DHT22;7686;52.184;9.280;2023-02-18T08:01:55;26.30;35.90
15172;DHT22;7686;52.184;9.280;2023-02-18T08:04:22;26.30;36.00
15172;DHT22;7686;52.184;9.280;2023-02-18T08:06:49;26.30;36.00
15172;DHT22;7686;52.184;9.280;2023-02-18T08:09:16;26.30;36.00
15172;DHT22;7686;52.184;9.280;2023-02-18T08:11:43;26.30;36.10
15172;DHT22;7686;52.184;9.280;2023-02-18T08:14:10;26.30;36.10
15172;DHT22;7686;52.184;9.280;2023-02-18T08:16:37;26.30;36.20
15172;DHT22;7686;52.184;9.280;2023-02-18T08:19:03;26.30;36.10
15172;DHT22;7686;52.184;9.280;2023-02-18T08:21:30;26.30;36.10
15172;DHT22;7686;52.184;9.280;2023-02-18T08:23:58;26.30;36.20
15172;DHT22;7686;52.184;9.280;2023-02-18T08:26:25;26.30;36.30
15172;DHT22;7686;52.184;9.280;2023-02-18T08:28:52;26.30;36.30
15172;DHT22;7686;52.184;9.280;2023-02-18T08:31:25;26.40;36.50
15172;DHT22;7686;52.184;9.280;2023-02-18T08:33:57;26.40;36.50
15172;DHT22;7686;52.184;9.280;2023-02-18T08:36:24;26.40;36.50
15172;DHT22;7686;52.184;9.280;2023-02-18T08:38:50;26.40;36.50
15172;DHT22;7686;52.184;9.280;2023-02-18T08:41:17;26.50;36.60
15172;DHT22;7686;52.184;9.280;2023-02-18T08:43:44;26.50;36.60
15172;DHT22;7686;52.184;9.280;2023-02-18T08:46:11;26.50;36.60
15172;DHT22;7686;52.184;9.280;2023-02-18T08:48:42;26.60;36.50
15172;DHT22;7686;52.184;9.280;2023-02-18T08:51:18;26.60;36.50
15172;DHT22;7686;52.184;9.280;2023-02-18T08:53:45;26.70;36.50
15172;DHT22;7686;52.184;9.280;2023-02-18T08:56:13;26.70;36.40
15172;DHT22;7686;52.184;9.280;2023-02-18T08:58:40;26.70;36.30
15172;DHT22;7686;52.184;9.280;2023-02-18T09:01:10;26.80;36.30
15172;DHT22;7686;52.184;9.280;2023-02-18T09:03:38;26.80;36.20
15172;DHT22;7686;52.184;9.280;2023-02-18T09:06:05;26.80;36.10
15172;DHT22;7686;52.184;9.280;2023-02-18T09:08:32;26.90;36.20
15172;DHT22;7686;52.184;9.280;2023-02-18T09:11:01;26.90;36.10
15172;DHT22;7686;52.184;9.280;2023-02-18T09:13:30;26.90;36.10
15172;DHT22;7686;52.184;9.280;2023-02-18T09:16:01;27.00;36.00
15172;DHT22;7686;52.184;9.280;2023-02-18T09:18:30;27.00;36.00
15172;DHT22;7686;52.184;9.280;2023-02-18T09:20:58;27.00;36.00
15172;DHT22;7686;52.184;9.280;2023-02-18T09:23:27;27.00;36.00
15172;DHT22;7686;52.184;9.280;2023-02-18T09:25:54;27.10;36.00
15172;DHT22;7686;52.184;9.280;2023-02-18T09:28:21;27.10;36.00
15172;DHT22;7686;52.184;9.280;2023-02-18T09:30:48;27.10;36.00
15172;DHT22;7686;52.184;9.280;2023-02-18T09:33:15;27.10;35.90
15172;DHT22;7686;52.184;9.280;2023-02-18T09:35:43;27.10;35.90
15172;DHT22;7686;52.184;9.280;2023-02-18T09:38:12;27.20;35.90
15172;DHT22;7686;52.184;9.280;2023-02-18T09:40:44;27.20;35.90
15172;DHT22;7686;52.184;9.280;2023-02-18T09:43:22;27.40;36.00
15172;DHT22;7686;52.184;9.280;2023-02-18T09:45:50;27.20;35.80
15172;DHT22;7686;52.184;9.280;2023-02-18T09:48:20;27.30;35.90
15172;DHT22;7686;52.184;9.280;2023-02-18T09:50:52;27.30;35.80
15172;DHT22;7686;52.184;9.280;2023-02-18T09:53:22;27.30;35.80
15172;DHT22;7686;52.184;9.280;2023-02-18T09:55:50;27.30;35.70
15172;DHT22;7686;52.184;9.280;2023-02-18T09:58:21;27.30;35.70
15172;DHT22;7686;52.184;9.280;2023-02-18T10:00:52;27.40;35.70
15172;DHT22;7686;52.184;9.280;2023-02-18T10:03:21;27.30;35.60
15172;DHT22;7686;52.184;9.280;2023-02-18T10:06:09;27.40;35.60
15172;DHT22;7686;52.184;9.280;2023-02-18T10:08:41;27.40;35.70
15172;DHT22;7686;52.184;9.280;2023-02-18T10:11:16;27.50;35.60
15172;DHT22;7686;52.184;9.280;2023-02-18T10:13:44;27.50;35.60
15172;DHT22;7686;52.184;9.280;2023-02-18T10:16:16;27.50;35.50
15172;DHT22;7686;52.184;9.280;2023-02-18T10:19:14;27.50;35.50
15172;DHT22;7686;52.184;9.280;2023-02-18T10:21:34;27.50;35.40
15172;DHT22;7686;52.184;9.280;2023-02-18T10:27:05;27.50;35.50
15172;DHT22;7686;52.184;9.280;2023-02-18T10:29:31;27.50;35.30
15172;DHT22;7686;52.184;9.280;2023-02-18T10:37:06;27.60;35.30
15172;DHT22;7686;52.184;9.280;2023-02-18T10:45:44;27.60;35.40
15172;DHT22;7686;52.184;9.280;2023-02-18T10:48:54;27.60;35.40
15172;DHT22;7686;52.184;9.280;2023-02-18T10:51:30;27.60;35.30
15172;DHT22;7686;52.184;9.280;2023-02-18T10:53:58;27.60;35.30
15172;DHT22;7686;52.184;9.280;2023-02-18T10:59:12;27.70;35.50
15172;DHT22;7686;52.184;9.280;2023-02-18T11:01:41;27.60;35.30
15172;DHT22;7686;52.184;9.280;2023-02-18T11:04:38;27.80;35.50
15172;DHT22;7686;52.184;9.280;2023-02-18T11:07:13;27.70;35.50
15172;DHT22;7686;52.184;9.280;2023-02-18T11:09:49;27.70;35.60
15172;DHT22;7686;52.184;9.280;2023-02-18T11:12:31;27.70;35.50
15172;DHT22;7686;52.184;9.280;2023-02-18T11:15:17;27.70;35.50
15172;DHT22;7686;52.184;9.280;2023-02-18T11:17:47;27.70;35.50
15172;DHT22;7686;52.184;9.280;2023-02-18T11:20:24;27.70;35.50
15172;DHT22;7686;52.184;9.280;2023-02-18T11:22:51;27.70;35.40
15172;DHT22;7686;52.184;9.280;2023-02-18T11:25:24;27.80;35.40
15172;DHT22;7686;52.184;9.280;2023-02-18T11:27:56;27.80;35.40
15172;DHT22;7686;52.184;9.280;2023-02-18T11:30:30;27.80;35.40
15172;DHT22;7686;52.184;9.280;2023-02-18T11:33:09;27.80;35.50
15172;DHT22;7686;52.184;9.280;2023-02-18T11:35:49;27.80;35.40
15172;DHT22;7686;52.184;9.280;2023-02-18T11:38:28;27.80;35.40
15172;DHT22;7686;52.184;9.280;2023-02-18T11:41:12;27.80;35.40
15172;DHT22;7686;52.184;9.280;2023-02-18T11:43:41;27.90;35.50
15172;DHT22;7686;52.184;9.280;2023-02-18T11:46:22;27.90;35.40
15172;DHT22;7686;52.184;9.280;2023-02-18T11:48:50;27.90;35.50
15172;DHT22;7686;52.184;9.280;2023-02-18T11:51:32;27.90;35.40
15172;DHT22;7686;52.184;9.280;2023-02-18T11:54:04;27.90;35.40
15172;DHT22;7686;52.184;9.280;2023-02-18T11:56:34;27.90;35.30
15172;DHT22;7686;52.184;9.280;2023-02-18T11:59:03;28.00;35.40
15172;DHT22;7686;52.184;9.280;2023-02-18T12:01:45;27.90;35.30
15172;DHT22;7686;52.184;9.280;2023-02-18T12:04:20;27.90;35.20
15172;DHT22;7686;52.184;9.280;2023-02-18T12:07:05;27.90;35.20
15172;DHT22;7686;52.184;9.280;2023-02-18T12:09:42;27.90;35.10
15172;DHT22;7686;52.184;9.280;2023-02-18T12:12:16;27.90;35.10
15172;DHT22;7686;52.184;9.280;2023-02-18T12:14:44;28.00;35.10
15172;DHT22;7686;52.184;9.280;2023-02-18T12:22:45;27.90;35.00
15172;DHT22;7686;52.184;9.280;2023-02-18T12:25:34;27.90;35.10
15172;DHT22;7686;52.184;9.280;2023-02-18T12:28:28;27.90;35.10
15172;DHT22;7686;52.184;9.280;2023-02-18T12:37:14;27.80;35.10
15172;DHT22;7686;52.184;9.280;2023-02-18T12:42:33;27.80;35.10
15172;DHT22;7686;52.184;9.280;2023-02-18T12:48:23;27.80;35.10
15172;DHT22;7686;52.184;9.280;2023-02-18T13:02:05;27.80;35.20
15172;DHT22;7686;52.184;9.280;2023-02-18T13:10:41;27.90;35.20
15172;DHT22;7686;52.184;9.280;2023-02-18T13:13:14;27.80;35.10
15172;DHT22;7686;52.184;9.280;2023-02-18T13:15:52;27.80;35.10
15172;DHT22;7686;52.184;9.280;2023-02-18T13:20:56;27.90;35.10
15172;DHT22;7686;52.184;9.280;2023-02-18T13:23:31;27.80;35.10
15172;DHT22;7686;52.184;9.280;2023-02-18T13:26:01;27.90;35.10
15172;DHT22;7686;52.184;9.280;2023-02-18T13:28:34;27.90;35.10
15172;DHT22;7686;52.184;9.280;2023-02-18T13:31:14;27.90;35.10
15172;DHT22;7686;52.184;9.280;2023-02-18T13:33:56;27.90;35.00
15172;DHT22;7686;52.184;9.280;2023-02-18T13:36:58;27.90;35.00
15172;DHT22;7686;52.184;9.280;2023-02-18T13:39:29;27.90;35.00
15172;DHT22;7686;52.184;9.280;2023-02-18T13:45:04;28.10;35.10
15172;DHT22;7686;52.184;9.280;2023-02-18T13:47:45;27.90;34.90
15172;DHT22;7686;52.184;9.280;2023-02-18T13:55:47;27.90;34.80
15172;DHT22;7686;52.184;9.280;2023-02-18T13:58:37;27.90;34.80
15172;DHT22;7686;52.184;9.280;2023-02-18T14:01:14;27.90;34.80
15172;DHT22;7686;52.184;9.280;2023-02-18T14:06:33;27.90;34.80
15172;DHT22;7686;52.184;9.280;2023-02-18T14:11:59;27.90;34.80
15172;DHT22;7686;52.184;9.280;2023-02-18T14:14:41;27.90;34.80
15172;DHT22;7686;52.184;9.280;2023-02-18T14:22:46;28.00;34.90
15172;DHT22;7686;52.184;9.280;2023-02-18T14:27:40;27.90;34.90
15172;DHT22;7686;52.184;9.280;2023-02-18T14:32:47;27.90;34.90
15172;DHT22;7686;52.184;9.280;2023-02-18T14:41:27;27.90;34.90
15172;DHT22;7686;52.184;9.280;2023-02-18T14:44:16;27.90;34.90
15172;DHT22;7686;52.184;9.280;2023-02-18T14:49:51;27.80;34.80
15172;DHT22;7686;52.184;9.280;2023-02-18T14:52:26;27.90;35.00
15172;DHT22;7686;52.184;9.280;2023-02-18T14:54:55;27.80;34.80
15172;DHT22;7686;52.184;9.280;2023-02-18T14:57:44;27.80;34.90
15172;DHT22;7686;52.184;9.280;2023-02-18T15:00:16;27.80;34.90
15172;DHT22;7686;52.184;9.280;2023-02-18T15:02:48;27.80;35.00
15172;DHT22;7686;52.184;9.280;2023-02-18T15:05:25;27.80;35.00
15172;DHT22;7686;52.184;9.280;2023-02-18T15:08:04;27.70;35.00
15172;DHT22;7686;52.184;9.280;2023-02-18T15:10:38;27.70;35.00
15172;DHT22;7686;52.184;9.280;2023-02-18T15:13:23;27.70;35.00
15172;DHT22;7686;52.184;9.280;2023-02-18T15:15:55;27.70;35.00
15172;DHT22;7686;52.184;9.280;2023-02-18T15:18:32;27.70;35.00
15172;DHT22;7686;52.184;9.280;2023-02-18T15:21:01;27.70;35.10
15172;DHT22;7686;52.184;9.280;2023-02-18T15:23:29;27.70;35.10
15172;DHT22;7686;52.184;9.280;2023-02-18T15:25:56;27.70;35.10
15172;DHT22;7686;52.184;9.280;2023-02-18T15:28:27;27.70;35.10
15172;DHT22;7686;52.184;9.280;2023-02-18T15:30:59;27.70;35.10
15172;DHT22;7686;52.184;9.280;2023-02-18T15:33:27;27.70;35.10
15172;DHT22;7686;52.184;9.280;2023-02-18T15:36:05;27.70;35.10
15172;DHT22;7686;52.184;9.280;2023-02-18T15:38:33;27.70;35.10
15172;DHT22;7686;52.184;9.280;2023-02-18T15:41:00;27.70;35.10
15172;DHT22;7686;52.184;9.280;2023-02-18T15:43:27;27.70;35.20
15172;DHT22;7686;52.184;9.280;2023-02-18T15:45:55;27.70;35.20
15172;DHT22;7686;52.184;9.280;2023-02-18T15:48:33;27.70;35.30
15172;DHT22;7686;52.184;9.280;2023-02-18T15:51:09;27.70;35.30
15172;DHT22;7686;52.184;9.280;2023-02-18T15:53:45;27.70;35.30
15172;DHT22;7686;52.184;9.280;2023-02-18T15:56:19;27.70;35.30
15172;DHT22;7686;52.184;9.280;2023-02-18T15:58:47;27.70;35.30
15172;DHT22;7686;52.184;9.280;2023-02-18T16:01:26;27.70;35.30
15172;DHT22;7686;52.184;9.280;2023-02-18T16:03:54;27.70;35.40
15172;DHT22;7686;52.184;9.280;2023-02-18T16:06:27;27.70;35.40
15172;DHT22;7686;52.184;9.280;2023-02-18T16:09:32;27.70;35.40
15172;DHT22;7686;52.184;9.280;2023-02-18T16:12:02;27.70;35.50
15172;DHT22;7686;52.184;9.280;2023-02-18T16:14:46;27.70;35.50
15172;DHT22;7686;52.184;9.280;2023-02-18T16:17:23;27.70;35.60
15172;DHT22;7686;52.184;9.280;2023-02-18T16:19:59;27.70;35.50
15172;DHT22;7686;52.184;9.280;2023-02-18T16:27:35;27.70;35.60
15172;DHT22;7686;52.184;9.280;2023-02-18T16:30:17;27.70;35.70
15172;DHT22;7686;52.184;9.280;2023-02-18T16:32:44;27.70;35.70
15172;DHT22;7686;52.184;9.280;2023-02-18T16:35:12;27.70;35.80
15172;DHT22;7686;52.184;9.280;2023-02-18T16:37:41;27.70;35.70
15172;DHT22;7686;52.184;9.280;2023-02-18T16:40:30;27.70;35.70
15172;DHT22;7686;52.184;9.280;2023-02-18T16:42:59;27.70;35.80
15172;DHT22;7686;52.184;9.280;2023-02-18T16:45:39;27.70;35.70
15172;DHT22;7686;52.184;9.280;2023-02-18T16:48:25;27.60;35.60
15172;DHT22;7686;52.184;9.280;2023-02-18T16:50:52;27.60;35.70
15172;DHT22;7686;52.184;9.280;2023-02-18T16:53:19;27.60;35.60
15172;DHT22;7686;52.184;9.280;2023-02-18T16:55:46;27.60;35.70
15172;DHT22;7686;52.184;9.280;2023-02-18T16:58:14;27.60;36.50
15172;DHT22;7686;52.184;9.280;2023-02-18T17:00:42;27.60;35.80
15172;DHT22;7686;52.184;9.280;2023-02-18T17:03:09;27.50;35.80
15172;DHT22;7686;52.184;9.280;2023-02-18T17:05:36;27.40;35.90
15172;DHT22;7686;52.184;9.280;2023-02-18T17:08:18;27.40;35.90
15172;DHT22;7686;52.184;9.280;2023-02-18T17:10:47;27.40;36.00
15172;DHT22;7686;52.184;9.280;2023-02-18T17:13:19;27.40;36.00
15172;DHT22;7686;52.184;9.280;2023-02-18T17:15:49;27.40;36.10
15172;DHT22;7686;52.184;9.280;2023-02-18T17:18:16;27.30;36.10
15172;DHT22;7686;52.184;9.280;2023-02-18T17:20:44;27.30;36.10
15172;DHT22;7686;52.184;9.280;2023-02-18T17:23:14;27.30;36.20
15172;DHT22;7686;52.184;9.280;2023-02-18T17:25:41;27.30;36.30
15172;DHT22;7686;52.184;9.280;2023-02-18T17:28:08;27.20;36.20
15172;DHT22;7686;52.184;9.280;2023-02-18T17:30:37;27.20;36.30
15172;DHT22;7686;52.184;9.280;2023-02-18T17:33:06;27.20;36.40
15172;DHT22;7686;52.184;9.280;2023-02-18T17:35:33;27.20;36.60
15172;DHT22;7686;52.184;9.280;2023-02-18T17:37:59;27.20;36.60
15172;DHT22;7686;52.184;9.280;2023-02-18T17:40:27;27.10;36.70
15172;DHT22;7686;52.184;9.280;2023-02-18T17:42:55;27.10;36.80
15172;DHT22;7686;52.184;9.280;2023-02-18T17:45:34;27.10;36.90
15172;DHT22;7686;52.184;9.280;2023-02-18T17:48:02;27.10;37.10
15172;DHT22;7686;52.184;9.280;2023-02-18T17:50:30;27.10;37.10
15172;DHT22;7686;52.184;9.280;2023-02-18T17:52:57;27.10;37.20
15172;DHT22;7686;52.184;9.280;2023-02-18T17:55:29;27.00;37.10
15172;DHT22;7686;52.184;9.280;2023-02-18T17:57:56;27.00;37.20
15172;DHT22;7686;52.184;9.280;2023-02-18T18:00:30;27.00;37.20
15172;DHT22;7686;52.184;9.280;2023-02-18T18:02:58;27.00;37.40
15172;DHT22;7686;52.184;9.280;2023-02-18T18:05:27;27.00;37.30
15172;DHT22;7686;52.184;9.280;2023-02-18T18:07:54;27.00;37.40
15172;DHT22;7686;52.184;9.280;2023-02-18T18:10:23;27.00;37.40